Time;durP1;ratioP1;P1;durP2;ratioP2;P2;SDS_P1;SDS_P2;PMS_P1;PMS_P2;Temp;Humidity;BMP_temperature;BMP_pressure;BME280_temperature;BME280_humidity;BME280_pressure;Samples;Min_cycle;Max_cycle;Signal;HPM_P1;HPM_P2
2022/03/24 00:00:38;;;;;;;17.23;8.18;;;;;;;0.21;47.97;100232.81;4967454;28;20087;-81
2022/03/24 00:03:08;;;;;;;19.45;8.15;;;;;;;0.14;48.28;100224.88;4967533;28;20565;-80
2022/03/24 00:05:35;;;;;;;22.58;9.05;;;;;;;0.27;47.90;100236.47;4939369;28;20042;-80
2022/03/24 00:08:02;;;;;;;33.05;10.05;;;;;;;0.27;48.46;100230.47;4952744;28;20042;-79
2022/03/24 00:10:30;;;;;;;23.63;9.98;;;;;;;0.12;47.98;100202.56;4970241;28;20050;-80
2022/03/24 00:12:55;;;;;;;23.75;9.13;;;;;;;0.26;48.05;100234.75;4959581;28;20074;-80
2022/03/24 00:15:21;;;;;;;23.40;8.52;;;;;;;0.29;48.36;100229.75;4983216;28;20047;-79
2022/03/24 00:17:48;;;;;;;25.38;9.27;;;;;;;0.33;48.76;100230.72;4979682;28;20130;-79
2022/03/24 00:20:14;;;;;;;25.40;9.10;;;;;;;0.13;49.25;100186.41;4974349;28;20066;-79
2022/03/24 00:22:41;;;;;;;23.55;10.82;;;;;;;0.34;48.33;100219.69;4963850;28;20145;-80
2022/03/24 00:25:08;;;;;;;25.05;9.82;;;;;;;0.28;48.56;100224.53;4980660;28;20101;-78
2022/03/24 00:27:33;;;;;;;21.55;9.43;;;;;;;0.03;48.78;100167.25;4958316;28;20404;-80
2022/03/24 00:29:59;;;;;;;20.98;9.90;;;;;;;-0.01;49.38;100166.28;4957252;28;20045;-79
2022/03/24 00:32:25;;;;;;;26.13;9.63;;;;;;;0.11;48.86;100181.25;4975220;28;20133;-79
2022/03/24 00:34:52;;;;;;;27.80;9.38;;;;;;;0.31;49.43;100199.06;4972135;28;20506;-78
2022/03/24 00:37:18;;;;;;;24.75;8.70;;;;;;;0.21;49.68;100179.06;4967544;28;20124;-80
2022/03/24 00:39:44;;;;;;;21.15;9.35;;;;;;;0.22;48.75;100171.44;4953079;28;20041;-80
2022/03/24 00:42:14;;;;;;;20.60;8.93;;;;;;;0.38;48.87;100193.38;4937111;28;20554;-79
2022/03/24 00:44:44;;;;;;;21.77;8.35;;;;;;;0.27;48.59;100171.59;4945062;28;20106;-79
2022/03/24 00:47:13;;;;;;;23.67;9.70;;;;;;;0.40;48.11;100184.06;4936629;28;20046;-79
2022/03/24 00:49:41;;;;;;;19.40;8.63;;;;;;;0.40;48.68;100175.50;4951432;28;20046;-79
2022/03/24 00:52:09;;;;;;;23.27;8.82;;;;;;;0.47;48.25;100176.59;4952567;28;20050;-78
2022/03/24 00:54:35;;;;;;;30.85;10.50;;;;;;;0.18;48.22;100136.28;4935937;28;20055;-80
2022/03/24 00:57:02;;;;;;;29.83;10.82;;;;;;;0.37;47.43;100177.94;4968745;28;20046;-79
2022/03/24 00:59:29;;;;;;;143.77;71.00;;;;;;;0.28;48.53;100164.00;4951608;28;20054;-78
2022/03/24 01:01:56;;;;;;;141.57;74.68;;;;;;;0.29;48.03;100152.94;4970182;28;20055;-80
2022/03/24 01:04:22;;;;;;;140.60;79.75;;;;;;;0.43;47.56;100150.00;4981383;28;20100;-79
2022/03/24 01:06:48;;;;;;;79.35;46.17;;;;;;;0.55;47.46;100164.97;4969688;28;20066;-77
2022/03/24 01:09:14;;;;;;;108.43;59.78;;;;;;;0.68;47.54;100167.16;4944544;28;20034;-79
2022/03/24 01:11:41;;;;;;;101.47;57.05;;;;;;;0.68;47.18;100168.88;4953323;28;20046;-79
2022/03/24 01:14:07;;;;;;;91.25;51.80;;;;;;;0.48;46.24;100133.16;4952071;28;20034;-81
2022/03/24 01:16:35;;;;;;;75.65;44.85;;;;;;;0.53;45.97;100147.00;4950304;28;20043;-79
2022/03/24 01:19:04;;;;;;;54.65;30.85;;;;;;;0.36;46.76;100112.19;4970381;28;20043;-80
2022/03/24 01:21:30;;;;;;;52.45;29.33;;;;;;;0.34;45.91;100113.81;4951420;28;20105;-80
2022/03/24 01:23:56;;;;;;;53.83;32.03;;;;;;;0.43;46.68;100143.22;4951281;28;20038;-80
2022/03/24 01:26:22;;;;;;;50.25;31.58;;;;;;;0.25;46.21;100105.00;4952181;28;20049;-78
2022/03/24 01:28:50;;;;;;;49.55;26.73;;;;;;;0.21;46.25;100100.56;4970389;28;20056;-79
2022/03/24 01:31:18;;;;;;;27.17;9.95;;;;;;;0.44;46.33;100150.06;4967688;28;20530;-81
2022/03/24 01:33:43;;;;;;;20.10;10.68;;;;;;;0.31;46.74;100136.75;4950360;28;20042;-80
2022/03/24 01:36:10;;;;;;;25.13;9.07;;;;;;;0.21;47.03;100133.84;4965815;28;20044;-81
2022/03/24 01:38:37;;;;;;;22.52;9.05;;;;;;;0.36;46.69;100148.91;4956487;28;20046;-79
2022/03/24 01:41:07;;;;;;;33.90;10.38;;;;;;;0.32;47.13;100151.31;4951640;28;20097;-80
2022/03/24 01:43:34;;;;;;;28.38;8.80;;;;;;;0.23;47.30;100142.44;4933176;28;20042;-80
2022/03/24 01:46:00;;;;;;;29.38;10.68;;;;;;;0.10;47.48;100138.53;4966703;28;20113;-79
2022/03/24 01:48:27;;;;;;;24.48;9.68;;;;;;;0.05;48.01;100126.38;4967888;28;20049;-78
2022/03/24 01:50:53;;;;;;;30.80;11.63;;;;;;;-0.08;47.68;100118.22;4971360;28;20038;-79
2022/03/24 01:53:20;;;;;;;26.25;9.88;;;;;;;0.08;47.89;100141.88;4973314;28;20045;-78
2022/03/24 01:55:48;;;;;;;32.97;11.57;;;;;;;0.11;48.23;100150.53;4954126;28;20042;-80
2022/03/24 01:58:14;;;;;;;31.63;10.00;;;;;;;-0.01;48.51;100129.59;4956910;28;20146;-81
2022/03/24 02:00:44;;;;;;;30.98;10.30;;;;;;;0.04;48.31;100122.09;4956372;28;20093;-81
2022/03/24 02:03:14;;;;;;;40.03;10.65;;;;;;;0.05;48.62;100126.38;4950885;28;20142;-78
2022/03/24 02:05:42;;;;;;;32.47;10.82;;;;;;;-0.05;49.06;100113.22;4955303;28;20091;-78
2022/03/24 02:08:10;;;;;;;27.85;11.10;;;;;;;-0.11;48.69;100102.75;4970150;28;20053;-79
2022/03/24 02:10:37;;;;;;;23.83;9.63;;;;;;;-0.04;49.04;100114.97;4969264;28;20070;-79
2022/03/24 02:13:04;;;;;;;23.75;8.85;;;;;;;0.09;49.28;100133.38;4982353;28;20058;-79
2022/03/24 02:15:32;;;;;;;25.77;8.90;;;;;;;0.10;49.15;100142.81;4975240;28;20042;-79
2022/03/24 02:17:58;;;;;;;30.33;9.63;;;;;;;0.10;49.09;100146.22;4976562;28;20050;-80
2022/03/24 02:20:28;;;;;;;32.97;10.40;;;;;;;0.03;49.00;100135.69;4975259;28;20043;-78
2022/03/24 02:22:54;;;;;;;29.30;10.35;;;;;;;0.02;49.07;100131.38;4974481;28;20406;-80
2022/03/24 02:25:22;;;;;;;20.45;10.57;;;;;;;-0.18;49.49;100108.44;4938861;28;20097;-78
2022/03/24 02:27:54;;;;;;;21.58;9.00;;;;;;;0.03;49.13;100131.44;4948018;28;20035;-76
2022/03/24 02:30:21;;;;;;;22.67;9.95;;;;;;;0.15;49.85;100115.69;4968655;28;20039;-81
2022/03/24 02:32:47;;;;;;;32.60;11.48;;;;;;;0.08;48.43;100108.59;4953502;28;20053;-78
2022/03/24 02:35:13;;;;;;;34.63;12.25;;;;;;;-0.10;49.01;100078.03;4935167;28;20042;-79
2022/03/24 02:37:40;;;;;;;28.48;10.68;;;;;;;-0.18;48.91;100070.94;4969572;28;20075;-78
2022/03/24 02:40:06;;;;;;;28.50;10.77;;;;;;;0.03;48.62;100102.44;4941949;28;20043;-80
2022/03/24 02:42:32;;;;;;;24.40;8.95;;;;;;;0.01;49.10;100092.09;4968930;28;20094;-79
2022/03/24 02:45:02;;;;;;;27.23;9.15;;;;;;;-0.16;48.69;100094.91;4986196;28;20042;-79
2022/03/24 02:47:30;;;;;;;23.07;10.43;;;;;;;-0.26;49.70;100100.47;4957731;28;20527;-80
2022/03/24 02:49:57;;;;;;;25.92;9.73;;;;;;;-0.32;50.29;100083.19;4968413;28;20038;-79
2022/03/24 02:52:24;;;;;;;28.42;10.05;;;;;;;-0.29;49.90;100081.56;4935077;28;20054;-80
2022/03/24 02:54:50;;;;;;;23.35;10.40;;;;;;;-0.10;49.69;100117.28;4951112;28;20045;-79
2022/03/24 02:57:16;;;;;;;23.30;9.90;;;;;;;-0.17;49.69;100112.75;4966247;28;20038;-78
2022/03/24 02:59:42;;;;;;;33.00;11.80;;;;;;;-0.20;50.07;100112.63;4967099;28;21574;-79
2022/03/24 03:02:13;;;;;;;31.98;10.07;;;;;;;-0.23;50.12;100115.06;4951585;28;20470;-79
2022/03/24 03:04:42;;;;;;;31.45;10.57;;;;;;;-0.22;49.71;100114.25;4976304;28;20065;-80
2022/03/24 03:07:08;;;;;;;26.38;10.50;;;;;;;-0.22;49.81;100109.13;4969402;28;20070;-80
2022/03/24 03:09:37;;;;;;;29.40;11.55;;;;;;;-0.26;49.64;100117.50;4954562;28;20043;-80
2022/03/24 03:12:05;;;;;;;31.83;11.55;;;;;;;-0.37;50.23;100089.81;4964661;28;20042;-78
2022/03/24 03:14:30;;;;;;;29.55;11.60;;;;;;;-0.44;50.15;100066.50;4964240;28;20050;-81
2022/03/24 03:16:58;;;;;;;27.40;12.75;;;;;;;-0.07;50.10;100035.53;4972484;28;20042;-80
2022/03/24 03:19:25;;;;;;;30.75;15.13;;;;;;;-0.09;49.95;100036.28;4967853;28;20062;-81
2022/03/24 03:21:51;;;;;;;42.78;18.17;;;;;;;-0.09;50.01;100041.41;4958476;28;20043;-82
2022/03/24 03:24:19;;;;;;;100.13;43.97;;;;;;;-0.14;49.85;100038.69;4951304;28;20109;-80
2022/03/24 03:26:46;;;;;;;209.35;106.68;;;;;;;-0.18;49.05;100035.13;4965035;28;20038;-79
2022/03/24 03:29:13;;;;;;;164.20;94.40;;;;;;;-0.20;48.95;100036.75;4968698;28;20096;-80
2022/03/24 03:31:38;;;;;;;190.88;102.43;;;;;;;-0.22;49.20;100017.06;4964237;28;20827;-79
2022/03/24 03:34:07;;;;;;;107.50;45.67;;;;;;;-0.09;48.59;100018.38;4950169;28;20054;-79
2022/03/24 03:36:33;;;;;;;110.10;42.35;;;;;;;0.03;48.43;100025.66;4965521;28;20108;-80
2022/03/24 03:39:00;;;;;;;121.55;47.10;;;;;;;-0.27;48.34;99972.50;4967549;28;20070;-79
2022/03/24 03:41:28;;;;;;;38.08;16.88;;;;;;;-0.04;47.93;100017.75;4966461;28;20479;-80
2022/03/24 03:43:55;;;;;;;51.25;20.35;;;;;;;-0.14;48.70;100015.66;4948216;28;20503;-80
2022/03/24 03:46:22;;;;;;;40.08;18.23;;;;;;;-0.14;48.81;99992.63;4965215;28;20053;-81
2022/03/24 03:48:50;;;;;;;47.53;21.80;;;;;;;0.26;49.59;100024.81;4963770;28;20047;-81
2022/03/24 03:51:16;;;;;;;53.40;22.63;;;;;;;0.27;49.42;100003.53;4953828;28;20043;-79
2022/03/24 03:53:42;;;;;;;47.00;21.67;;;;;;;0.52;49.66;100032.56;4954343;28;20061;-79
2022/03/24 03:56:09;;;;;;;56.90;25.15;;;;;;;0.35;49.50;99984.97;4947042;28;20043;-79
2022/03/24 03:58:35;;;;;;;61.67;24.77;;;;;;;0.59;49.24;100016.56;4982620;28;20579;-79
2022/03/24 04:01:06;;;;;;;49.67;22.15;;;;;;;0.72;49.36;100027.28;4962081;28;20042;-79
2022/03/24 04:03:34;;;;;;;67.18;20.48;;;;;;;0.53;50.16;99977.97;4935024;28;20054;-80
2022/03/24 04:06:04;;;;;;;50.10;21.85;;;;;;;1.01;50.13;100035.06;4950315;28;20043;-79
2022/03/24 04:08:31;;;;;;;34.50;15.50;;;;;;;1.05;49.95;100003.59;4944466;28;20047;-83
2022/03/24 04:10:57;;;;;;;46.03;19.98;;;;;;;1.33;49.63;100022.44;4950083;28;20045;-80
2022/03/24 04:13:24;;;;;;;51.75;19.65;;;;;;;1.28;49.20;99999.22;4948676;28;20049;-81
2022/03/24 04:15:54;;;;;;;39.83;17.38;;;;;;;1.49;49.44;100003.28;4964612;28;20034;-79
2022/03/24 04:18:22;;;;;;;47.65;17.73;;;;;;;1.54;49.19;99995.72;4955893;28;20038;-81
2022/03/24 04:20:48;;;;;;;53.10;21.63;;;;;;;1.61;49.57;99979.72;4951094;28;20094;-78
2022/03/24 04:23:15;;;;;;;48.15;22.25;;;;;;;1.94;48.90;99987.53;4949422;28;20038;-83
2022/03/24 04:25:42;;;;;;;48.33;21.40;;;;;;;2.43;48.81;100010.28;4936233;28;20490;-81
2022/03/24 04:28:08;;;;;;;50.83;21.92;;;;;;;2.53;48.97;99993.44;4965933;28;20041;-81
2022/03/24 04:30:35;;;;;;;48.05;20.73;;;;;;;2.84;48.26;99994.22;4973497;28;20053;-81
2022/03/24 04:33:04;;;;;;;46.50;20.98;;;;;;;2.85;48.10;99958.28;4966995;28;20181;-82
2022/03/24 04:35:31;;;;;;;48.17;22.48;;;;;;;3.34;48.00;99962.00;4950474;28;20118;-81
2022/03/24 04:37:58;;;;;;;45.33;21.63;;;;;;;3.57;47.59;99940.22;4949325;28;20177;-81
2022/03/24 04:40:24;;;;;;;43.83;21.58;;;;;;;4.68;46.85;100002.53;4949545;28;20042;-79
2022/03/24 04:42:54;;;;;;;59.38;25.88;;;;;;;5.27;46.14;100006.09;4949107;28;20278;-77
2022/03/24 04:45:22;;;;;;;52.00;24.77;;;;;;;5.54;45.17;99994.47;4967262;28;20522;-78
2022/03/24 04:47:49;;;;;;;46.65;23.15;;;;;;;5.92;45.02;99988.09;4934672;28;20043;-78
2022/03/24 04:50:19;;;;;;;45.03;23.52;;;;;;;6.33;44.60;99977.44;4965662;28;20047;-82
2022/03/24 04:52:49;;;;;;;52.92;24.35;;;;;;;6.71;43.83;99994.22;4970072;28;20047;-81
2022/03/24 04:55:16;;;;;;;53.63;24.58;;;;;;;6.76;43.31;99967.53;4969559;28;20050;-80
2022/03/24 04:57:43;;;;;;;84.82;35.78;;;;;;;7.70;43.50;99989.81;4968106;28;20039;-81
2022/03/24 05:00:10;;;;;;;73.32;31.50;;;;;;;9.31;41.87;99972.09;4972858;28;20054;-81
2022/03/24 05:02:37;;;;;;;73.97;33.55;;;;;;;10.84;39.74;99936.78;4953327;28;20058;-81
2022/03/24 05:05:06;;;;;;;64.82;28.77;;;;;;;12.24;37.72;99958.84;4971695;28;20266;-82
2022/03/24 05:07:32;;;;;;;55.10;28.85;;;;;;;13.30;36.04;99965.06;4953738;28;20043;-81
2022/03/24 05:09:58;;;;;;;60.58;28.08;;;;;;;14.21;34.70;99968.56;4953069;28;20043;-79
2022/03/24 05:12:24;;;;;;;51.97;27.85;;;;;;;14.81;33.66;99957.69;4968865;28;20097;-79
2022/03/24 05:14:50;;;;;;;58.00;30.23;;;;;;;15.92;32.15;99965.31;4968441;28;20134;-77
2022/03/24 05:17:17;;;;;;;52.58;26.98;;;;;;;17.16;30.69;99973.84;4920404;28;20046;-79
2022/03/24 05:19:44;;;;;;;50.38;27.38;;;;;;;18.28;29.37;99956.75;4969006;28;20046;-80
2022/03/24 05:22:11;;;;;;;50.67;29.50;;;;;;;19.20;27.87;99962.75;4952827;28;20030;-81
2022/03/24 05:24:41;;;;;;;53.47;29.15;;;;;;;19.95;26.88;99949.00;4968833;28;20046;-81
2022/03/24 05:27:08;;;;;;;51.30;30.27;;;;;;;20.99;25.80;99960.84;4968370;28;20043;-83
2022/03/24 05:29:35;;;;;;;51.85;30.55;;;;;;;21.84;24.47;99933.63;4968600;28;20050;-79
2022/03/24 05:32:04;;;;;;;44.80;27.23;;;;;;;22.50;23.22;99955.66;4936433;28;20093;-84
2022/03/24 05:34:31;;;;;;;50.90;27.08;;;;;;;23.21;22.52;99937.47;4970957;28;20065;-82
2022/03/24 05:36:58;;;;;;;47.92;27.75;;;;;;;23.74;21.49;99913.94;4951978;28;20041;-82
2022/03/24 05:39:24;;;;;;;48.10;28.40;;;;;;;24.59;21.03;99961.75;4952462;28;20132;-77
2022/03/24 05:41:50;;;;;;;44.30;25.88;;;;;;;24.91;20.16;99918.03;4970855;28;20045;-84
2022/03/24 05:44:16;;;;;;;38.92;26.08;;;;;;;25.94;19.48;99946.53;4969153;28;20051;-83
2022/03/24 05:46:44;;;;;;;37.08;24.17;;;;;;;26.67;18.45;99946.66;4940408;28;20046;-81
2022/03/24 05:49:15;;;;;;;37.95;24.10;;;;;;;27.15;17.60;99892.38;4970547;28;20109;-81
2022/03/24 05:52:00;;;;;;;36.00;24.40;;;;;;;27.99;17.10;99883.19;4973676;28;20039;-83
2022/03/24 05:54:26;;;;;;;33.42;24.23;;;;;;;28.89;16.44;99935.63;4973136;28;20394;-82
2022/03/24 05:56:52;;;;;;;35.70;25.55;;;;;;;29.49;15.58;99951.13;4984376;28;20102;-79
2022/03/24 05:59:18;;;;;;;34.00;25.95;;;;;;;29.76;15.32;99949.72;4974235;28;20042;-79
2022/03/24 06:01:46;;;;;;;40.47;26.77;;;;;;;30.40;14.97;99942.31;4969680;28;20046;-80
2022/03/24 06:04:15;;;;;;;33.88;24.27;;;;;;;30.83;14.14;99953.66;4970173;28;20153;-80
2022/03/24 06:06:42;;;;;;;37.05;24.58;;;;;;;31.20;13.88;99904.59;4969639;28;20050;-79
2022/03/24 06:09:09;;;;;;;36.88;24.38;;;;;;;32.06;13.40;99961.03;4936861;28;20035;-79
2022/03/24 06:11:36;;;;;;;42.53;24.02;;;;;;;32.30;13.46;99928.25;4953921;28;20070;-80
2022/03/24 06:14:04;;;;;;;38.75;23.60;;;;;;;32.98;12.81;99945.72;4981347;28;20098;-81
2022/03/24 06:16:30;;;;;;;35.45;23.80;;;;;;;33.01;12.76;99944.56;4983674;28;20054;-80
2022/03/24 06:18:56;;;;;;;31.90;23.63;;;;;;;33.39;12.01;99952.44;4973121;28;20039;-81
2022/03/24 06:21:23;;;;;;;30.15;21.65;;;;;;;32.29;12.12;99972.28;4956499;28;20038;-80
2022/03/24 06:23:50;;;;;;;32.25;22.42;;;;;;;32.12;11.90;99938.94;4981021;28;20035;-81
2022/03/24 06:26:19;;;;;;;34.00;21.70;;;;;;;32.85;11.46;99907.56;4984572;28;20145;-80
2022/03/24 06:28:45;;;;;;;35.25;21.15;;;;;;;33.37;11.44;99901.38;4971728;28;20043;-83
2022/03/24 06:31:12;;;;;;;33.15;22.77;;;;;;;32.83;10.83;99909.56;4953035;28;20414;-79
2022/03/24 06:33:40;;;;;;;34.75;22.42;;;;;;;32.80;11.43;99934.94;4936591;28;20085;-80
2022/03/24 06:36:08;;;;;;;34.30;21.90;;;;;;;33.61;10.86;99938.41;4968118;28;20046;-80
2022/03/24 06:38:37;;;;;;;27.45;17.50;;;;;;;33.84;10.40;99964.81;4952140;28;20045;-80
2022/03/24 06:41:14;;;;;;;19.75;16.25;;;;;;;33.90;10.77;99953.41;4953178;28;20073;-80
2022/03/24 06:43:39;;;;;;;23.20;15.18;;;;;;;33.92;10.21;99964.03;4927224;28;20066;-79
2022/03/24 06:46:06;;;;;;;18.95;13.32;;;;;;;33.92;10.54;99943.28;4952052;28;20057;-79
2022/03/24 06:48:42;;;;;;;17.65;14.25;;;;;;;34.76;10.27;99949.75;4970146;28;21607;-80
2022/03/24 06:51:08;;;;;;;19.65;13.65;;;;;;;35.92;9.17;99966.69;4967493;28;20050;-83
2022/03/24 06:53:34;;;;;;;23.92;14.27;;;;;;;36.11;9.32;99970.00;4952042;28;20418;-82
2022/03/24 06:56:00;;;;;;;21.63;13.20;;;;;;;36.08;9.24;99921.66;4949678;28;20129;-84
2022/03/24 06:58:29;;;;;;;19.85;14.52;;;;;;;36.32;8.91;99940.44;4950890;28;20050;-86
2022/03/24 07:00:59;;;;;;;17.58;12.63;;;;;;;36.03;9.19;99900.50;4956459;28;20047;-87
2022/03/24 07:03:27;;;;;;;18.23;12.95;;;;;;;36.51;9.25;99867.06;4955594;28;20191;-83
2022/03/24 07:06:01;;;;;;;18.90;12.70;;;;;;;37.43;8.22;99895.84;4953749;28;20383;-88
2022/03/24 07:08:28;;;;;;;18.38;12.55;;;;;;;38.60;8.41;99979.38;4936815;28;20054;-87
2022/03/24 07:10:57;;;;;;;15.88;13.15;;;;;;;38.85;7.93;99967.09;4936423;28;20109;-86
2022/03/24 07:13:23;;;;;;;18.55;13.50;;;;;;;39.57;8.18;99961.59;4949691;28;20046;-85
2022/03/24 07:15:50;;;;;;;16.70;12.02;;;;;;;39.42;7.70;99869.19;4968960;28;20042;-86
2022/03/24 07:24:12;;;;;;;15.40;11.30;;;;;;;39.80;7.49;99859.75;4873003;29;20049;-86
2022/03/24 07:26:40;;;;;;;133.05;17.40;;;;;;;40.93;7.39;99898.28;4865610;29;20074;-85
2022/03/24 07:29:17;;;;;;;;;;;;;;;;;;;;;
2022/03/24 07:31:47;;;;;;;;;;;;;;;42.28;6.86;99959.63;4886430;29;20044;-87
2022/03/24 07:34:19;;;;;;;20.55;10.68;;;;;;;42.46;7.25;99952.63;4880186;29;19955;-82
2022/03/24 07:36:51;;;;;;;15.63;10.82;;;;;;;42.93;6.65;99963.22;4903877;29;20079;-85
2022/03/24 07:39:19;;;;;;;12.32;11.10;;;;;;;42.67;6.16;99940.47;4907733;29;20040;-84
2022/03/24 07:41:52;;;;;;;11.55;9.80;;;;;;;41.20;6.46;99855.44;4906234;29;20103;-86
2022/03/24 07:45:40;;;;;;;15.52;10.35;;;;;;;42.46;6.60;99938.94;4879583;29;20040;-86
2022/03/24 07:48:26;;;;;;;24.05;11.13;;;;;;;42.84;6.54;99927.09;4829983;29;20072;-85
2022/03/24 07:50:59;;;;;;;;;;;;;;;43.21;6.25;99959.19;4895172;29;20140;-82
2022/03/24 07:53:47;;;;;;;15.65;11.05;;;;;;;42.97;6.61;99860.50;4904913;29;20792;-85
2022/03/24 07:56:20;;;;;;;12.27;10.18;;;;;;;42.64;6.23;99893.59;4888962;29;20044;-85
2022/03/24 07:58:46;;;;;;;13.95;8.80;;;;;;;43.08;6.21;99886.25;4876915;29;20044;-85
2022/03/24 08:01:28;;;;;;;10.83;8.83;;;;;;;43.07;5.84;99851.75;4891294;29;20044;-84
2022/03/24 08:04:02;;;;;;;7.47;6.78;;;;;;;43.72;5.80;99973.63;4938495;29;20102;-86
2022/03/24 08:06:32;;;;;;;16.20;9.27;;;;;;;43.57;5.57;99962.19;4927505;29;20039;-85
2022/03/24 08:09:04;;;;;;;18.42;10.18;;;;;;;42.75;6.04;99890.13;4892769;29;20107;-85
2022/03/24 08:12:19;;;;;;;;;;;;;;;;;;;;;
2022/03/24 08:15:13;;;;;;;9.38;7.32;;;;;;;40.58;5.68;99879.38;4927192;28;20052;-86
2022/03/24 08:18:09;;;;;;;12.07;7.93;;;;;;;40.92;6.12;99883.78;4920910;29;20108;-87
2022/03/24 08:20:47;;;;;;;10.43;8.70;;;;;;;42.67;5.49;99945.09;4937783;28;20032;-88
2022/03/24 08:23:17;;;;;;;9.13;7.78;;;;;;;41.32;5.66;99885.63;4936599;28;20058;-87
2022/03/24 08:25:46;;;;;;;11.93;8.73;;;;;;;39.43;6.00;99867.28;4948619;28;20024;-87
2022/03/24 08:28:13;;;;;;;14.27;9.55;;;;;;;39.57;6.21;99952.56;4951183;29;20034;-88
2022/03/24 08:31:50;;;;;;;;;;;;;;;;;;;;;
2022/03/24 08:34:49;;;;;;;12.68;8.05;;;;;;;41.52;5.36;99947.53;4963655;29;20060;-87
2022/03/24 08:37:20;;;;;;;15.40;9.48;;;;;;;40.86;5.61;99944.63;4924395;29;20134;-85
2022/03/24 08:39:59;;;;;;;12.25;8.32;;;;;;;41.03;5.49;99946.94;4957529;29;20043;-86
2022/03/24 08:42:31;;;;;;;11.40;8.65;;;;;;;39.91;6.62;99864.59;4924788;29;20054;-87
2022/03/24 08:45:16;;;;;;;11.35;6.65;;;;;;;40.61;6.32;99838.06;4941689;29;20051;-85
2022/03/24 08:47:42;;;;;;;10.38;6.55;;;;;;;40.27;5.52;99797.22;4946702;29;20042;-85
2022/03/24 08:50:13;;;;;;;8.45;5.68;;;;;;;40.81;5.48;99860.72;4960561;29;20043;-88
2022/03/24 08:53:11;;;;;;;9.13;5.35;;;;;;;41.01;5.49;99911.69;4944059;29;20039;-88
2022/03/24 08:55:45;;;;;;;6.07;4.22;;;;;;;40.53;5.88;99944.56;4938555;29;20051;-89
2022/03/24 08:58:18;;;;;;;7.50;4.45;;;;;;;40.96;5.67;99846.00;4936617;28;20032;-88
2022/03/24 09:01:05;;;;;;;5.93;3.95;;;;;;;41.64;5.55;99874.00;4969288;28;20095;-88
2022/03/24 09:03:35;;;;;;;7.07;4.20;;;;;;;40.80;5.01;99830.97;4961264;28;20099;-88
2022/03/24 09:06:15;;;;;;;5.05;3.08;;;;;;;40.78;5.34;99925.75;4932287;29;20123;-89
2022/03/24 09:08:57;;;;;;;;;;;;;;;;;;;;;
2022/03/24 09:11:41;;;;;;;5.95;4.18;;;;;;;41.95;5.39;99925.13;4966103;28;20039;-89
2022/03/24 09:14:07;;;;;;;7.32;4.97;;;;;;;40.59;5.17;99851.94;4956455;28;20026;-85
2022/03/24 09:16:43;;;;;;;5.60;4.32;;;;;;;40.01;5.42;99940.44;4963488;28;20047;-88
2022/03/24 09:19:17;;;;;;;5.35;3.83;;;;;;;39.37;5.93;99832.75;4959630;29;20460;-86
2022/03/24 09:21:48;;;;;;;4.78;3.30;;;;;;;40.03;5.37;99881.16;4945357;29;20054;-86
2022/03/24 09:24:20;;;;;;;5.85;4.18;;;;;;;40.01;4.90;99880.53;4904936;29;20109;-86
2022/03/24 09:26:55;;;;;;;5.07;3.47;;;;;;;38.90;5.83;99886.81;4926343;28;20043;-89
2022/03/24 09:29:49;;;;;;;4.53;3.22;;;;;;;39.87;6.00;99930.56;4930658;29;20043;-84
2022/03/24 09:32:24;;;;;;;3.70;3.25;;;;;;;39.37;5.27;99879.84;4917337;29;20039;-87
2022/03/24 09:34:51;;;;;;;7.40;3.30;;;;;;;38.62;5.66;99896.63;4942102;29;20054;-90
2022/03/24 09:37:23;;;;;;;6.13;3.25;;;;;;;39.25;5.47;99949.41;4921525;29;20138;-87
2022/03/24 09:39:53;;;;;;;5.30;3.55;;;;;;;38.62;5.17;99808.81;4919061;29;20063;-87
2022/03/24 09:42:21;;;;;;;4.68;3.50;;;;;;;37.90;5.41;99819.59;4939042;28;20039;-87
2022/03/24 09:44:49;;;;;;;4.07;3.25;;;;;;;37.94;6.01;99854.34;4908292;29;20039;-86
2022/03/24 09:47:15;;;;;;;5.03;3.45;;;;;;;38.61;5.81;99900.38;4921071;29;20749;-89
2022/03/24 09:49:42;;;;;;;3.33;2.90;;;;;;;38.80;5.57;99909.75;4958158;28;20047;-83
2022/03/24 09:52:15;;;;;;;4.75;2.58;;;;;;;36.54;6.00;99801.69;4954038;28;20129;-82
2022/03/24 09:54:42;;;;;;;2.83;2.15;;;;;;;35.95;6.00;99936.56;4959832;28;20066;-85
2022/03/24 09:57:12;;;;;;;12.15;3.20;;;;;;;34.19;6.59;99787.50;4931113;28;20047;-86
2022/03/24 09:59:51;;;;;;;6.60;3.88;;;;;;;36.59;6.45;99886.78;4968420;28;20574;-89
2022/03/24 10:02:39;;;;;;;8.30;3.33;;;;;;;37.67;6.09;99799.75;4949590;28;20531;-83
2022/03/24 10:06:28;;;;;;;9.32;3.50;;;;;;;37.25;5.88;99865.50;4942915;28;20059;-91
2022/03/24 10:09:21;;;;;;;7.57;4.10;;;;;;;38.40;6.70;99925.69;4901547;28;20046;-87
2022/03/24 10:12:01;;;;;;;4.85;3.63;;;;;;;38.16;6.06;99794.63;4877072;29;20047;-87
2022/03/24 10:19:06;;;;;;;8.30;3.85;;;;;;;38.67;5.86;99925.91;4813839;29;20045;-86
2022/03/24 10:21:47;;;;;;;6.83;3.43;;;;;;;34.84;5.85;99883.06;4883955;29;20101;-87
2022/03/24 10:25:08;;;;;;;4.75;3.78;;;;;;;31.15;7.02;99780.59;4903853;29;20051;-87
2022/03/24 10:27:34;;;;;;;5.60;2.80;;;;;;;29.36;7.51;99822.72;4894460;29;20055;-87
2022/03/24 10:30:00;;;;;;;4.22;2.50;;;;;;;28.25;7.92;99914.03;4924403;29;20130;-85
2022/03/24 10:32:31;;;;;;;3.03;2.42;;;;;;;26.56;8.25;99878.09;4894034;29;20430;-85
2022/03/24 10:35:08;;;;;;;4.80;3.10;;;;;;;25.27;8.82;99877.38;4902914;29;21071;-87
2022/03/24 10:37:35;;;;;;;4.85;2.85;;;;;;;24.54;9.48;99939.91;4937736;28;20098;-84
2022/03/24 10:40:10;;;;;;;4.43;3.00;;;;;;;22.91;9.99;99851.63;4945488;29;20055;-82
2022/03/24 10:42:41;;;;;;;5.32;2.85;;;;;;;22.67;10.22;99954.69;4911173;29;20118;-83
2022/03/24 10:45:10;;;;;;;3.85;2.80;;;;;;;21.73;10.38;99955.38;4911755;29;20138;-81
2022/03/24 10:47:42;;;;;;;6.30;3.35;;;;;;;21.11;10.77;99958.50;4945336;29;20415;-82
2022/03/24 10:50:31;;;;;;;8.18;3.85;;;;;;;20.27;11.79;99950.16;4976968;28;20103;-82
2022/03/24 10:53:15;;;;;;;4.72;4.00;;;;;;;19.29;12.48;99961.50;4956218;28;20043;-82
2022/03/24 10:55:59;;;;;;;9.27;4.57;;;;;;;18.73;12.90;99879.41;4926179;29;20142;-82
2022/03/24 10:58:46;;;;;;;7.93;4.80;;;;;;;18.20;13.00;99849.91;4942213;29;20035;-84
2022/03/24 11:01:17;;;;;;;6.13;3.10;;;;;;;18.43;13.33;99907.84;4927862;29;20051;-83
2022/03/24 11:03:50;;;;;;;5.00;3.00;;;;;;;17.49;12.73;99821.00;4912153;29;20039;-84
2022/03/24 11:06:19;;;;;;;4.18;3.00;;;;;;;17.48;13.67;99897.34;4945899;29;20054;-84
2022/03/24 11:08:55;;;;;;;8.05;3.30;;;;;;;17.17;13.82;99876.47;4944623;29;20067;-82
2022/03/24 11:11:25;;;;;;;6.65;3.45;;;;;;;17.54;14.04;99971.66;4947276;29;20431;-80
2022/03/24 11:14:03;;;;;;;7.97;4.03;;;;;;;17.49;14.19;99978.00;4949878;29;20043;-83
2022/03/24 11:16:34;;;;;;;10.35;4.30;;;;;;;17.23;14.44;99966.59;4955637;28;20043;-84
2022/03/24 11:19:11;;;;;;;5.43;3.80;;;;;;;15.79;14.68;99754.88;4933925;29;20042;-84
2022/03/24 11:21:58;;;;;;;6.68;3.60;;;;;;;16.91;14.63;99982.50;4928406;29;20420;-82
2022/03/24 11:24:25;;;;;;;4.28;3.08;;;;;;;15.76;15.01;99882.69;4941008;29;20043;-83
2022/03/24 11:26:52;;;;;;;6.18;3.40;;;;;;;16.10;15.23;99974.44;4941101;29;20050;-82
2022/03/24 11:29:19;;;;;;;4.68;3.40;;;;;;;15.73;15.22;99935.22;4951464;28;20039;-84
2022/03/24 11:31:45;;;;;;;6.80;3.08;;;;;;;15.19;15.04;99899.06;4959456;28;20050;-85
2022/03/24 11:34:12;;;;;;;5.85;3.05;;;;;;;15.00;15.70;99914.41;4957337;29;20039;-85
2022/03/24 11:36:40;;;;;;;6.95;3.08;;;;;;;15.04;16.05;99926.53;4947076;28;20066;-83
2022/03/24 11:39:10;;;;;;;4.78;3.50;;;;;;;14.44;16.05;99852.00;4963194;29;20043;-85
2022/03/24 11:41:51;;;;;;;4.38;3.10;;;;;;;14.65;16.14;99903.03;4949795;28;20024;-84
2022/03/24 11:44:34;;;;;;;8.00;2.92;;;;;;;14.69;16.19;99881.09;4952392;29;20137;-82
2022/03/24 11:47:11;;;;;;;7.53;3.03;;;;;;;15.22;16.39;99974.13;4967496;29;20054;-85
2022/03/24 11:53:16;;;;;;;5.53;3.22;;;;;;;14.51;16.79;99892.88;4931918;29;20056;-84
2022/03/24 11:56:34;;;;;;;5.60;3.55;;;;;;;14.01;16.64;99833.81;4922729;29;20501;-84
2022/03/24 11:59:24;;;;;;;10.98;3.40;;;;;;;14.67;16.72;99974.56;4875143;29;20211;-86
2022/03/24 12:03:04;;;;;;;13.25;3.50;;;;;;;14.47;16.95;99969.75;4907539;29;20079;-85